Airfield :
LOGIN :

Register | Disclaimer

   EN    FR    IT 

 










Legend :    VFR   Marginal VFR   IFR   Intensive IFR   Very Intensive IFR
Visi :
Ceiling :
>= 8 km
>= 3000ft
5 to 8 km
1000 to 3000 ft
1500m to 5 km
500 to 1000 ft
800 to 1500m
200 to 500 ft
< 800m
< 200 ft
Symbols :   Thunderstorms  Fog  Heavy snow  Heavy precipitations  Wind > 20 kt
SIGMETs :     Misc.  Thunderstorms  Icing  Turbulence  Mountain Waves  Volcanic Ashes






- Airport Elevation : 1791 ft
- IATA code : AOT


LIMW - Aosta

CURRENT METAR :
  • 180550Z VRB01KT 9999 SCT070 17/16 Q1021

EXPIRED METARs :
  • 180520Z VRB01KT 9999 SCT070 17/15 Q1021
  • 180450Z 00000KT 9999 SCT070 16/15 Q1021
  • 180420Z 09002KT 9999 SCT070 16/16 Q1020
  • 180350Z VRB02KT 9999 BKN065 17/15 Q1020
  • 180320Z 36001KT 9999 BKN065 17/15 Q1020
  • 180220Z 00000KT 9999 SCT070 17/15 Q1020
  • 180150Z VRB01KT 9999 SCT080 17/15 Q1020

TAF TAF LIMW
Valid from the 18 at 06:00 until the 18 at 15:00 UTC


180500Z 1806/1815 08005KT 9999 SCT025
BECMG 1810/1812 08015KT
PROB40
TEMPO 1813/1815 08016G28KT



MET'MAP, your aeronautical weather chart ! - Copyright ORBIFLY December 2007 - Disclaimer

ORBIFLY MET'MAP TEAM :

Programming & Development : Alexandra Zaïnal
Original concept : Baudouin d'Aumeries
Technical & hardware support : Manuel Goepfert
Assistance : Marc-Olivier Méhu




SOURCES & CREDITS :

   NOAA